createdAt,value
2019-06-26T00:00:20.863Z,98872.48
2019-06-26T00:02:50.480Z,98875.86
2019-06-26T00:05:20.276Z,98878.51
2019-06-26T00:07:49.899Z,98881.80
2019-06-26T00:10:19.826Z,98874.84
2019-06-26T00:12:49.443Z,98880.42
2019-06-26T00:15:20.004Z,98885.73
2019-06-26T00:17:49.629Z,98883.17
2019-06-26T00:20:19.919Z,98878.02
2019-06-26T00:22:49.527Z,98887.08
2019-06-26T00:25:19.173Z,98881.95
2019-06-26T00:27:48.814Z,98888.87
2019-06-26T00:30:18.928Z,98889.70
2019-06-26T00:32:48.557Z,98891.72
2019-06-26T00:35:18.276Z,98901.38
2019-06-26T00:37:47.890Z,98902.46
2019-06-26T00:40:17.777Z,98905.41
2019-06-26T00:42:47.406Z,98901.73
2019-06-26T00:45:17.261Z,98903.84
2019-06-26T00:47:47.476Z,98901.58
2019-06-26T00:50:18.727Z,98897.91
2019-06-26T00:52:48.554Z,98904.23
2019-06-26T00:55:18.245Z,98908.75
2019-06-26T00:57:47.958Z,98909.39
2019-06-26T01:00:18.185Z,98905.63
2019-06-26T01:02:47.838Z,98905.20
2019-06-26T01:05:17.539Z,98903.92
2019-06-26T01:07:47.198Z,98904.56
2019-06-26T01:10:17.534Z,98908.21
2019-06-26T01:12:47.242Z,98904.95
2019-06-26T01:15:17.071Z,98914.79
2019-06-26T01:17:46.712Z,98909.17
2019-06-26T01:20:16.827Z,98910.30
2019-06-26T01:22:46.566Z,98920.40
2019-06-26T01:25:16.499Z,98915.59
2019-06-26T01:27:46.126Z,98918.48
2019-06-26T01:30:16.380Z,98919.16
2019-06-26T01:32:46.086Z,98920.27
2019-06-26T01:35:15.875Z,98923.20
2019-06-26T01:37:45.566Z,98920.42
2019-06-26T01:40:15.723Z,98917.77
2019-06-26T01:42:45.426Z,98918.24
2019-06-26T01:45:15.972Z,98920.09
2019-06-26T01:47:45.869Z,98914.53
2019-06-26T01:50:15.917Z,98920.41
2019-06-26T01:52:45.652Z,98916.48
2019-06-26T01:55:15.497Z,98911.98
2019-06-26T01:57:45.117Z,98913.19
2019-06-26T02:00:16.737Z,98912.29
2019-06-26T02:02:46.356Z,98917.31
2019-06-26T02:05:16.180Z,98916.09
2019-06-26T02:07:45.910Z,98920.70
2019-06-26T02:10:16.138Z,98919.52
2019-06-26T02:12:45.805Z,98920.80
2019-06-26T02:15:16.332Z,98914.73
2019-06-26T02:17:45.979Z,98911.50
2019-06-26T02:20:15.734Z,98919.67
2019-06-26T02:22:45.479Z,98916.28
2019-06-26T02:25:15.381Z,98917.57
2019-06-26T02:27:45.067Z,98915.48
2019-06-26T02:30:15.517Z,98914.92
2019-06-26T02:32:45.157Z,98915.41
2019-06-26T02:35:15.928Z,98918.17
2019-06-26T02:37:45.779Z,98912.27
2019-06-26T02:40:15.945Z,98915.81
2019-06-26T02:42:45.566Z,98918.14
2019-06-26T02:45:16.358Z,98917.66
2019-06-26T02:47:45.958Z,98909.62
2019-06-26T02:50:15.802Z,98921.67
2019-06-26T02:52:45.433Z,98917.66
2019-06-26T02:55:15.671Z,98922.48
2019-06-26T02:57:45.295Z,98919.39
2019-06-26T03:00:16.534Z,98927.43
2019-06-26T03:02:46.255Z,98918.98
2019-06-26T03:05:16.005Z,98923.00
2019-06-26T03:07:45.660Z,98918.39
2019-06-26T03:10:15.785Z,98924.92
2019-06-26T03:12:45.447Z,98923.92
2019-06-26T03:15:15.582Z,98928.09
2019-06-26T03:17:54.675Z,98925.29
2019-06-26T03:20:21.153Z,98927.80
2019-06-26T03:22:50.776Z,98933.26
2019-06-26T03:25:20.422Z,98926.44
2019-06-26T03:27:50.124Z,98928.53
2019-06-26T03:30:20.777Z,98925.06
2019-06-26T03:32:50.433Z,98935.46
2019-06-26T03:35:20.203Z,98934.56
2019-06-26T03:37:49.826Z,98937.44
2019-06-26T03:40:20.075Z,98940.72
2019-06-26T03:42:49.705Z,98941.20
2019-06-26T03:45:25.501Z,98937.52
2019-06-26T03:47:51.085Z,98934.54
2019-06-26T03:50:21.888Z,98936.61
2019-06-26T03:52:52.143Z,98936.38
2019-06-26T03:55:21.773Z,98931.19
2019-06-26T03:57:51.421Z,98940.73
2019-06-26T04:00:40.331Z,98945.04
2019-06-26T04:03:12.101Z,98942.11
2019-06-26T04:05:41.719Z,98948.92
2019-06-26T04:08:11.368Z,98951.90
2019-06-26T04:10:43.440Z,98949.92
2019-06-26T04:13:12.373Z,98953.55
2019-06-26T04:15:43.051Z,98957.91
2019-06-26T04:18:12.875Z,98957.78
2019-06-26T04:20:42.526Z,98960.77
2019-06-26T04:23:12.511Z,98964.53
2019-06-26T04:25:42.133Z,98969.11
2019-06-26T04:28:11.762Z,98965.60
2019-06-26T04:30:41.418Z,98965.83
2019-06-26T04:33:11.051Z,98967.64
2019-06-26T04:35:40.833Z,98959.71
2019-06-26T04:38:10.451Z,98966.78
2019-06-26T04:40:40.109Z,98964.94
2019-06-26T04:43:09.722Z,98969.22
2019-06-26T04:45:39.538Z,98975.91
2019-06-26T04:48:09.186Z,98978.89
2019-06-26T04:50:38.836Z,98984.83
2019-06-26T04:53:08.458Z,98976.75
2019-06-26T04:55:38.120Z,98978.83
2019-06-26T04:58:08.417Z,98977.20
2019-06-26T05:00:38.095Z,98984.56
2019-06-26T05:03:07.937Z,98981.65
2019-06-26T05:05:39.836Z,98979.86
2019-06-26T05:08:08.991Z,98985.73
2019-06-26T05:10:38.621Z,98980.55
2019-06-26T05:13:08.341Z,98984.31
2019-06-26T05:15:37.978Z,98988.04
2019-06-26T05:18:07.693Z,98991.44
2019-06-26T05:20:37.321Z,98991.94
2019-06-26T05:23:06.973Z,98995.15
2019-06-26T05:25:36.592Z,98991.80
2019-06-26T05:28:08.379Z,98988.52
2019-06-26T05:30:37.616Z,98998.07
2019-06-26T05:33:07.250Z,98998.94
2019-06-26T05:35:36.897Z,98997.58
2019-06-26T05:38:06.601Z,98999.72
2019-06-26T05:40:36.236Z,99000.86
2019-06-26T05:43:06.109Z,98999.91
2019-06-26T05:45:35.798Z,99004.81
2019-06-26T05:48:05.683Z,99011.78
2019-06-26T05:50:35.407Z,99009.91
2019-06-26T05:53:05.280Z,99010.61
2019-06-26T05:55:34.967Z,99010.41
2019-06-26T05:58:05.149Z,99010.61
2019-06-26T06:00:34.784Z,99010.24
2019-06-26T06:03:04.528Z,99006.98
2019-06-26T06:05:34.215Z,99017.73
2019-06-26T06:08:03.944Z,99017.34
2019-06-26T06:10:33.640Z,99020.95
2019-06-26T06:13:03.307Z,99016.16
2019-06-26T06:15:32.929Z,99020.11
2019-06-26T06:18:02.663Z,99020.88
2019-06-26T06:20:41.770Z,99019.12
2019-06-26T06:23:11.485Z,99019.16
2019-06-26T06:25:41.110Z,99024.36
2019-06-26T06:28:10.757Z,99019.23
2019-06-26T06:30:40.376Z,99021.42
2019-06-26T06:33:10.008Z,99028.13
2019-06-26T06:35:39.661Z,99024.73
2019-06-26T06:38:09.285Z,99024.03
2019-06-26T06:40:38.934Z,99027.28
2019-06-26T06:43:08.567Z,99030.56
2019-06-26T06:45:38.280Z,99037.27
2019-06-26T06:48:07.985Z,99035.61
2019-06-26T06:50:37.649Z,99028.72
2019-06-26T06:53:07.275Z,99035.20
2019-06-26T06:55:36.909Z,99030.52
2019-06-26T06:58:06.556Z,99033.58
2019-06-26T07:00:36.187Z,99030.52
2019-06-26T07:03:06.346Z,99035.83
2019-06-26T07:05:35.975Z,99037.44
2019-06-26T07:08:05.773Z,99037.53
2019-06-26T07:10:35.429Z,99034.33
2019-06-26T07:13:05.097Z,99034.08
2019-06-26T07:15:34.752Z,99036.17
2019-06-26T07:18:04.376Z,99041.30
2019-06-26T07:20:34.098Z,99038.11
2019-06-26T07:23:03.731Z,99034.95
2019-06-26T07:25:33.380Z,99035.60
2019-06-26T07:28:03.108Z,99031.11
2019-06-26T07:30:32.877Z,99028.38
2019-06-26T07:33:02.487Z,99031.18
2019-06-26T07:35:32.151Z,99036.27
2019-06-26T07:38:01.953Z,99034.81
2019-06-26T07:40:31.679Z,99040.03
2019-06-26T07:43:01.339Z,99035.50
2019-06-26T07:45:30.957Z,99033.81
2019-06-26T07:48:00.609Z,99034.20
2019-06-26T07:50:32.600Z,99036.58
2019-06-26T07:53:01.621Z,99035.38
2019-06-26T07:55:31.245Z,99043.77
2019-06-26T07:58:01.085Z,99041.59
2019-06-26T08:00:31.877Z,99042.51
2019-06-26T08:03:04.321Z,99046.61
2019-06-26T08:05:32.982Z,99053.88
2019-06-26T08:08:02.607Z,99049.96
2019-06-26T08:10:32.303Z,99055.53
2019-06-26T08:13:01.957Z,99047.35
2019-06-26T08:15:31.615Z,99053.80
2019-06-26T08:18:01.681Z,99052.67
2019-06-26T08:20:31.458Z,99047.63
2019-06-26T08:23:01.084Z,99049.14
2019-06-26T08:25:30.736Z,99049.16
2019-06-26T08:28:00.428Z,99055.05
2019-06-26T08:30:30.194Z,99056.52
2019-06-26T08:32:59.821Z,99058.87
2019-06-26T08:35:29.451Z,99057.14
2019-06-26T08:38:09.410Z,99056.89
2019-06-26T08:40:30.516Z,99053.33
2019-06-26T08:43:00.164Z,99052.67
2019-06-26T08:45:29.862Z,99051.66
2019-06-26T08:48:13.394Z,99051.95
2019-06-26T08:50:30.858Z,99050.38
2019-06-26T08:53:00.510Z,99054.95
2019-06-26T08:55:30.150Z,99052.66
2019-06-26T08:57:59.793Z,99047.56
2019-06-26T09:00:29.427Z,99045.32
2019-06-26T09:02:59.040Z,99044.86
2019-06-26T09:05:28.765Z,99046.47
2019-06-26T09:07:58.452Z,99044.29
2019-06-26T09:10:28.212Z,99049.53
2019-06-26T09:12:57.857Z,99051.13
2019-06-26T09:15:27.513Z,99049.78
2019-06-26T09:17:57.305Z,99041.44
2019-06-26T09:20:39.295Z,99039.72
2019-06-26T09:23:09.458Z,99039.88
2019-06-26T09:25:39.153Z,99038.22
2019-06-26T09:28:08.865Z,99036.62
2019-06-26T09:30:38.714Z,99040.09
2019-06-26T09:33:08.407Z,99040.28
2019-06-26T09:35:38.176Z,99040.69
2019-06-26T09:38:07.832Z,99042.84
2019-06-26T09:40:37.471Z,99045.95
2019-06-26T09:43:07.193Z,99036.58
2019-06-26T09:45:36.885Z,99040.92
2019-06-26T09:48:06.807Z,99042.30
2019-06-26T09:50:36.515Z,99041.97
2019-06-26T09:53:06.151Z,99043.33
2019-06-26T09:55:35.797Z,99038.17
2019-06-26T09:58:05.428Z,99044.47
2019-06-26T10:00:35.287Z,99038.84
2019-06-26T10:03:06.062Z,99038.98
2019-06-26T10:05:35.716Z,99039.55
2019-06-26T10:08:05.343Z,99041.27
2019-06-26T10:10:34.985Z,99042.39
2019-06-26T10:13:04.684Z,99038.26
2019-06-26T10:15:34.316Z,99035.63
2019-06-26T10:18:04.043Z,99028.62
2019-06-26T10:20:33.664Z,99031.89
2019-06-26T10:23:03.328Z,99039.70
2019-06-26T10:25:32.987Z,99033.37
2019-06-26T10:28:02.777Z,99030.14
2019-06-26T10:30:32.398Z,99029.27
2019-06-26T10:33:02.129Z,99027.45
2019-06-26T10:35:31.780Z,99028.46
2019-06-26T10:38:01.437Z,99024.94
2019-06-26T10:40:31.209Z,99024.55
2019-06-26T10:43:00.932Z,99020.68
2019-06-26T10:45:30.623Z,99017.87
2019-06-26T10:48:00.252Z,99019.48
2019-06-26T10:50:29.909Z,99018.84
2019-06-26T10:52:59.533Z,99015.42
2019-06-26T10:55:29.315Z,99011.89
2019-06-26T10:57:58.957Z,99014.92
2019-06-26T11:00:29.402Z,99004.36
2019-06-26T11:02:59.034Z,99000.36
2019-06-26T11:05:28.946Z,99002.64
2019-06-26T11:07:58.941Z,99003.76
2019-06-26T11:10:28.658Z,99005.84
2019-06-26T11:12:58.281Z,99007.52
2019-06-26T11:15:28.404Z,99008.17
2019-06-26T11:17:58.031Z,99000.84
2019-06-26T11:20:27.760Z,99003.28
2019-06-26T11:22:57.393Z,98996.96
2019-06-26T11:25:27.090Z,98995.73
2019-06-26T11:27:56.736Z,98996.61
2019-06-26T11:30:26.763Z,98996.52
2019-06-26T11:32:56.414Z,98993.03
2019-06-26T11:35:26.028Z,98987.56
2019-06-26T11:37:55.680Z,98985.42
2019-06-26T11:40:25.363Z,98985.09
2019-06-26T11:42:55.010Z,98983.23
2019-06-26T11:45:24.706Z,98982.98
2019-06-26T11:47:54.361Z,98981.44
2019-06-26T11:50:24.195Z,98987.94
2019-06-26T11:52:54.081Z,98982.39
2019-06-26T11:55:23.921Z,98981.52
2019-06-26T11:57:53.549Z,98982.95
2019-06-26T12:00:25.115Z,98978.07
2019-06-26T12:02:54.808Z,98982.83
2019-06-26T12:05:24.698Z,98979.70
2019-06-26T12:07:54.430Z,98971.70
2019-06-26T12:10:24.372Z,98971.79
2019-06-26T12:12:54.095Z,98971.40
2019-06-26T12:15:25.219Z,98969.61
2019-06-26T12:17:55.111Z,98973.88
2019-06-26T12:20:24.889Z,98967.75
2019-06-26T12:22:54.952Z,98963.44
2019-06-26T12:25:24.811Z,98967.30
2019-06-26T12:27:54.717Z,98972.20
2019-06-26T12:30:25.297Z,98967.47
2019-06-26T12:33:02.811Z,98967.52
2019-06-26T12:35:26.696Z,98955.27
2019-06-26T12:37:56.403Z,98952.97
2019-06-26T12:40:26.201Z,98955.27
2019-06-26T12:42:56.027Z,98960.33
2019-06-26T12:45:25.780Z,98955.62
2019-06-26T12:47:55.951Z,98949.48
2019-06-26T12:50:35.262Z,98954.89
2019-06-26T12:52:58.916Z,98952.11
2019-06-26T12:55:32.685Z,98938.62
2019-06-26T12:58:12.278Z,98942.89
2019-06-26T13:00:31.401Z,98935.17
2019-06-26T13:03:01.020Z,98930.44
2019-06-26T13:05:30.643Z,98926.25
2019-06-26T13:08:00.289Z,98926.84
2019-06-26T13:10:30.063Z,98932.38
2019-06-26T13:12:59.711Z,98927.73
2019-06-26T13:15:29.407Z,98924.05
2019-06-26T13:18:01.327Z,98917.90
2019-06-26T13:20:30.631Z,98911.15
2019-06-26T13:23:00.750Z,98907.00
2019-06-26T13:25:31.018Z,98916.53
2019-06-26T13:28:01.130Z,98906.02
2019-06-26T13:30:39.787Z,98910.36
2019-06-26T13:33:09.718Z,98905.41
2019-06-26T13:35:39.565Z,98908.20
2019-06-26T13:38:09.623Z,98903.05
2019-06-26T13:40:41.111Z,98903.09
2019-06-26T13:43:11.657Z,98905.88
2019-06-26T13:45:41.646Z,98911.42
2019-06-26T13:48:11.693Z,98899.69
2019-06-26T13:50:41.482Z,98898.09
2019-06-26T13:53:11.174Z,98894.33
2019-06-26T13:55:42.038Z,98901.08
2019-06-26T13:58:11.684Z,98894.72
2019-06-26T14:00:41.380Z,98893.34
2019-06-26T14:03:11.095Z,98897.72
2019-06-26T14:05:40.794Z,98891.56
2019-06-26T14:08:10.442Z,98891.36
2019-06-26T14:10:40.064Z,98893.34
2019-06-26T14:13:09.800Z,98893.14
2019-06-26T14:15:39.394Z,98891.92
2019-06-26T14:18:09.090Z,98889.91
2019-06-26T14:20:38.740Z,98890.53
2019-06-26T14:23:08.361Z,98883.96
2019-06-26T14:25:38.679Z,98883.61
2019-06-26T14:28:08.308Z,98883.55
2019-06-26T14:30:37.964Z,98887.69
2019-06-26T14:33:07.582Z,98879.55
2019-06-26T14:35:37.232Z,98886.16
2019-06-26T14:38:06.931Z,98888.52
2019-06-26T14:40:36.657Z,98883.37
2019-06-26T14:43:06.285Z,98882.59
2019-06-26T14:45:35.912Z,98876.22
2019-06-26T14:48:05.653Z,98875.66
2019-06-26T14:50:35.249Z,98879.64
2019-06-26T14:53:04.902Z,98876.62
2019-06-26T14:55:34.523Z,98871.11
2019-06-26T14:58:04.168Z,98864.74
2019-06-26T15:00:33.798Z,98866.34
2019-06-26T15:03:03.414Z,98861.16
2019-06-26T15:05:33.066Z,98864.13
2019-06-26T15:08:02.687Z,98862.92
2019-06-26T15:10:32.332Z,98864.31
2019-06-26T15:13:02.024Z,98858.95
2019-06-26T15:15:31.677Z,98857.39
2019-06-26T15:18:01.302Z,98853.20
2019-06-26T15:20:30.954Z,98850.05
2019-06-26T15:23:00.586Z,98852.59
2019-06-26T15:25:30.245Z,98850.05
2019-06-26T15:27:59.861Z,98846.06
2019-06-26T15:30:29.571Z,98852.41
2019-06-26T15:32:59.320Z,98846.23
2019-06-26T15:35:28.996Z,98842.45
2019-06-26T15:37:58.643Z,98838.69
2019-06-26T15:40:28.261Z,98841.86
2019-06-26T15:42:57.908Z,98834.70
2019-06-26T15:45:27.531Z,98834.08
2019-06-26T15:47:57.200Z,98833.09
2019-06-26T15:50:26.799Z,98836.09
2019-06-26T15:52:56.453Z,98826.52
2019-06-26T15:55:26.099Z,98830.45
2019-06-26T15:57:55.722Z,98835.04
2019-06-26T16:00:25.474Z,98825.37
2019-06-26T16:02:55.078Z,98829.93
2019-06-26T16:05:24.807Z,98822.17
2019-06-26T16:07:54.510Z,98824.71
2019-06-26T16:10:24.301Z,98815.34
2019-06-26T16:12:53.995Z,98817.83
2019-06-26T16:15:23.944Z,98823.16
2019-06-26T16:17:53.578Z,98814.89
2019-06-26T16:20:23.731Z,98817.21
2019-06-26T16:22:53.471Z,98824.81
2019-06-26T16:25:23.116Z,98816.69
2019-06-26T16:28:04.802Z,98818.55
2019-06-26T16:30:24.859Z,98817.41
2019-06-26T16:32:56.829Z,98812.25
2019-06-26T16:35:25.928Z,98816.86
2019-06-26T16:37:55.620Z,98816.68
2019-06-26T16:40:25.241Z,98817.88
2019-06-26T16:42:54.867Z,98816.28
2019-06-26T16:45:24.659Z,98819.07
2019-06-26T16:47:54.284Z,98814.90
2019-06-26T16:50:23.941Z,98820.45
2019-06-26T16:52:53.556Z,98817.28
2019-06-26T16:55:23.349Z,98818.25
2019-06-26T16:57:52.981Z,98813.69
2019-06-26T17:00:23.121Z,98816.48
2019-06-26T17:02:52.825Z,98815.07
2019-06-26T17:05:22.831Z,98818.85
2019-06-26T17:07:52.451Z,98816.28
2019-06-26T17:10:22.982Z,98807.13
2019-06-26T17:12:52.630Z,98816.07
2019-06-26T17:15:22.391Z,98812.09
2019-06-26T17:17:52.037Z,98819.60
2019-06-26T17:20:22.726Z,98824.12
2019-06-26T17:23:05.223Z,98822.73
2019-06-26T17:25:23.801Z,98824.52
2019-06-26T17:27:53.804Z,98824.91
2019-06-26T17:30:23.760Z,98828.44
2019-06-26T17:32:53.392Z,98830.97
2019-06-26T17:35:23.043Z,98830.14
2019-06-26T17:37:52.952Z,98834.08
2019-06-26T17:40:22.909Z,98835.83
2019-06-26T17:42:52.687Z,98841.11
2019-06-26T17:45:22.540Z,98837.69
2019-06-26T17:47:52.170Z,98833.07
2019-06-26T17:50:21.886Z,98828.84
2019-06-26T17:52:51.515Z,98832.54
2019-06-26T17:55:21.315Z,98835.83
2019-06-26T17:57:50.924Z,98832.44
2019-06-26T18:00:25.146Z,98833.34
2019-06-26T18:02:54.796Z,98834.70
2019-06-26T18:05:24.438Z,98834.57
2019-06-26T18:07:54.086Z,98828.80
2019-06-26T18:10:23.714Z,98833.09
2019-06-26T18:12:53.438Z,98838.14
2019-06-26T18:15:23.066Z,98832.73
2019-06-26T18:17:52.715Z,98834.02
2019-06-26T18:20:22.354Z,98832.38
2019-06-26T18:23:05.767Z,98834.67
2019-06-26T18:25:23.417Z,98832.20
2019-06-26T18:27:53.136Z,98825.45
2019-06-26T18:30:23.092Z,98830.14
2019-06-26T18:32:52.700Z,98827.26
2019-06-26T18:35:22.383Z,98828.63
2019-06-26T18:37:52.033Z,98833.52
2019-06-26T18:40:21.863Z,98833.86
2019-06-26T18:42:51.515Z,98835.91
2019-06-26T18:45:21.280Z,98845.71
2019-06-26T18:47:51.055Z,98836.67
2019-06-26T18:50:20.840Z,98844.75
2019-06-26T18:52:50.502Z,98841.29
2019-06-26T18:55:20.329Z,98836.23
2019-06-26T18:57:50.124Z,98833.76
2019-06-26T19:00:20.462Z,98836.75
2019-06-26T19:02:50.191Z,98828.91
2019-06-26T19:05:19.891Z,98830.50
2019-06-26T19:07:49.537Z,98832.91
2019-06-26T19:10:19.419Z,98835.84
2019-06-26T19:12:49.080Z,98831.05
2019-06-26T19:15:19.040Z,98832.63
2019-06-26T19:17:48.767Z,98834.97
2019-06-26T19:20:19.231Z,98832.36
2019-06-26T19:22:48.950Z,98830.39
2019-06-26T19:25:18.712Z,98834.08
2019-06-26T19:27:48.367Z,98835.20
2019-06-26T19:30:18.593Z,98833.48
2019-06-26T19:32:48.252Z,98836.02
2019-06-26T19:35:19.224Z,98839.31
2019-06-26T19:37:49.487Z,98844.99
2019-06-26T19:40:19.102Z,98844.61
2019-06-26T19:42:48.725Z,98853.00
2019-06-26T19:45:18.779Z,98854.96
2019-06-26T19:47:48.403Z,98849.94
2019-06-26T19:50:18.351Z,98857.59
2019-06-26T19:52:47.985Z,98862.08
2019-06-26T19:55:17.791Z,98862.14
2019-06-26T19:57:47.426Z,98860.06
2019-06-26T20:00:18.463Z,98863.61
2019-06-26T20:02:48.087Z,98875.73
2019-06-26T20:05:18.748Z,98870.85
2019-06-26T20:07:48.398Z,98878.13
2019-06-26T20:10:18.355Z,98883.88
2019-06-26T20:12:47.984Z,98877.89
2019-06-26T20:15:17.764Z,98884.22
2019-06-26T20:17:47.395Z,98887.00
2019-06-26T20:20:17.255Z,98881.39
2019-06-26T20:22:46.883Z,98882.91
2019-06-26T20:25:17.047Z,98888.66
2019-06-26T20:27:46.985Z,98886.77
2019-06-26T20:30:16.899Z,98893.28
2019-06-26T20:32:46.525Z,98891.03
2019-06-26T20:35:16.175Z,98895.08
2019-06-26T20:37:45.808Z,98895.59
2019-06-26T20:40:15.652Z,98887.90
2019-06-26T20:42:45.293Z,98889.55
2019-06-26T20:45:16.531Z,98893.59
2019-06-26T20:47:46.143Z,98889.17
2019-06-26T20:50:16.398Z,98899.80
2019-06-26T20:52:46.016Z,98897.34
2019-06-26T20:55:15.741Z,98904.21
2019-06-26T20:57:45.367Z,98903.62
2019-06-26T21:00:15.741Z,98910.03
2019-06-26T21:02:45.443Z,98907.91
2019-06-26T21:05:15.093Z,98903.58
2019-06-26T21:07:44.725Z,98906.67
2019-06-26T21:10:14.443Z,98902.98
2019-06-26T21:12:44.070Z,98897.23
2019-06-26T21:15:13.930Z,98900.56
2019-06-26T21:17:43.584Z,98908.83
2019-06-26T21:20:13.354Z,98909.24
2019-06-26T21:22:42.986Z,98912.58
2019-06-26T21:25:19.142Z,98912.45
2019-06-26T21:27:44.148Z,98913.69
2019-06-26T21:30:14.796Z,98914.69
2019-06-26T21:32:44.430Z,98915.24
2019-06-26T21:35:14.123Z,98913.98
2019-06-26T21:37:44.446Z,98918.13
2019-06-26T21:40:14.532Z,98912.13
2019-06-26T21:42:44.186Z,98909.27
2019-06-26T21:45:14.295Z,98908.59
2019-06-26T21:47:43.944Z,98913.94
2019-06-26T21:50:13.743Z,98918.36
2019-06-26T21:52:43.395Z,98918.72
2019-06-26T21:55:13.229Z,98915.53
2019-06-26T21:57:42.874Z,98918.86
2019-06-26T22:00:14.110Z,98914.98
2019-06-26T22:02:43.921Z,98911.42
2019-06-26T22:05:14.215Z,98915.80
2019-06-26T22:07:44.066Z,98917.84
2019-06-26T22:10:14.406Z,98920.36
2019-06-26T22:12:44.041Z,98914.09
2019-06-26T22:15:14.918Z,98916.03
2019-06-26T22:17:44.563Z,98919.47
2019-06-26T22:20:16.265Z,98915.47
2019-06-26T22:22:46.061Z,98912.14
2019-06-26T22:25:15.920Z,98915.34
2019-06-26T22:27:45.577Z,98921.54
2019-06-26T22:30:16.013Z,98922.02
2019-06-26T22:32:45.667Z,98923.03
2019-06-26T22:35:15.639Z,98921.61
2019-06-26T22:37:45.293Z,98925.73
2019-06-26T22:40:15.124Z,98925.50
2019-06-26T22:42:44.961Z,98930.55
2019-06-26T22:45:15.025Z,98927.80
2019-06-26T22:47:44.731Z,98935.59
2019-06-26T22:50:14.973Z,98929.41
2019-06-26T22:52:45.382Z,98929.39
2019-06-26T22:55:15.225Z,98924.80
2019-06-26T22:57:45.309Z,98926.65
2019-06-26T23:00:16.615Z,98921.39
2019-06-26T23:02:46.333Z,98917.52
2019-06-26T23:05:16.103Z,98917.61
2019-06-26T23:07:45.764Z,98917.63
2019-06-26T23:10:16.098Z,98921.13
2019-06-26T23:12:46.046Z,98922.97
2019-06-26T23:15:16.401Z,98927.19
2019-06-26T23:17:46.054Z,98923.43
2019-06-26T23:20:16.411Z,98923.98
2019-06-26T23:22:46.057Z,98925.11
2019-06-26T23:25:16.028Z,98927.76
2019-06-26T23:27:45.762Z,98931.29
2019-06-26T23:30:19.926Z,98924.86
2019-06-26T23:32:49.722Z,98922.02
2019-06-26T23:35:19.427Z,98923.50
2019-06-26T23:37:49.160Z,98923.04
2019-06-26T23:40:19.428Z,98923.50
2019-06-26T23:42:49.089Z,98926.02
2019-06-26T23:45:19.827Z,98922.81
2019-06-26T23:47:49.458Z,98923.86
2019-06-26T23:50:19.384Z,98930.03
2019-06-26T23:52:49.021Z,98928.19
2019-06-26T23:55:18.722Z,98926.02
2019-06-26T23:57:58.513Z,98929.77
